Latest Weather Observations for Darwin Harbour

IDD60801

Issued at 10:11 am CST Tuesday 20 October 2020 (issued every 10 minutes, with the page automatically refreshed every 10 minutes)

About weather observations | Map of weather stations | Latest weather observations for NT | Other Formats
Station Details ID: 014072 Name: DARWIN NTC AWS Lat: -12.47 Lon: 130.85 Height: 0.0 m
Data from the previous 72 hours. | See also: Recent months for locations in Northern Territory

* Apparent Temperature, Dew Point, Relative Humidity, Delta-T and Rain since 9am use data from Darwin Airport, as humidity and rainfall observations are not available for Darwin Harbour.

Date/Time
CST
Temp
°C
App
Temp
°C
Dew
Point
°C
Rel
Hum
%
Delta-T
°C
Wind Press
QNH
hPa
Press
MSL
hPa
Rain since
9am
mm
Dir  Spd
km/h
Gust
km/h
Spd
kts
Gust
kts
20/10:00am 29.6 32.3 22.2 64 5.0 WNW 11 15 6 8 1011.4 1011.3 0.0
20/09:30am 29.3 32.0 22.1 65 4.9 WNW 11 17 6 9 1011.6 1011.5 0.0
20/09:00am 29.1 31.7 21.9 65 4.9 WNW 11 17 6 9 1011.6 1011.5 0.0
20/08:30am 29.2 32.5 22.5 67 4.6 WNW 9 17 5 9 1011.7 1011.6 0.0
20/08:00am 29.1 32.3 22.4 67 4.5 WNW 9 17 5 9 1011.4 1011.3 0.0
20/07:30am 29.0 33.0 22.8 69 4.2 NW 6 13 3 7 1010.9 1010.8 0.0
20/07:00am 28.6 33.3 24.0 76 3.2 NW 6 9 3 5 1010.2 1010.1 0.0
20/06:30am 28.4 33.1 24.0 77 3.0 NNW 6 11 3 6 1010.1 1010.0 0.0
20/06:00am 28.4 33.1 23.9 76 3.1 NW 6 9 3 5 1009.8 1009.7 0.0
20/05:30am 28.5 33.5 23.8 75 3.2 NNW 4 9 2 5 1009.7 1009.6 0.0
20/05:00am 28.5 33.5 23.9 76 3.2 NNW 4 11 2 6 1009.5 1009.4 0.0
20/04:30am 28.5 33.0 23.9 76 3.2 N 7 15 4 8 1009.3 1009.2 0.0
20/04:00am 28.5 33.0 23.6 75 3.4 NW 6 11 3 6 1009.2 1009.1 0.0
20/03:30am 28.5 33.1 23.8 75 3.2 NW 6 13 3 7 1008.9 1008.8 0.0
20/03:00am 28.5 32.9 23.8 75 3.2 NNW 7 15 4 8 1008.8 1008.7 0.0
20/02:30am 28.6 33.1 23.9 75 3.2 NNW 7 17 4 9 1008.8 1008.7 0.0
20/02:00am 28.6 32.4 24.0 76 3.2 NW 11 17 6 9 1009.0 1008.9 0.0
20/01:30am 28.7 33.2 24.0 76 3.3 NW 7 15 4 8 1008.9 1008.8 0.0
20/01:00am 28.8 32.2 24.1 76 3.3 NW 13 17 7 9 1009.2 1009.1 0.0
20/12:30am 28.7 32.6 24.2 76 3.1 NW 11 20 6 11 1009.4 1009.3 0.0
20/12:00am 29.0 33.1 24.5 76 3.1 NW 11 19 6 10 1009.6 1009.5 0.0
 
Date/Time
CST
Temp
°C
App
Temp
°C
Dew
Point
°C
Rel
Hum
%
Delta-T
°C
Wind Press
QNH
hPa
Press
MSL
hPa
Rain since
9am
mm
Dir  Spd
km/h
Gust
km/h
Spd
kts
Gust
kts
19/11:30pm 29.4 32.3 24.5 75 3.4 WNW 17 20 9 11 1009.8 1009.7 0.0
19/11:00pm 29.4 32.7 23.9 72 3.8 WNW 13 19 7 10 1010.0 1009.9 0.0
19/10:30pm 29.2 33.2 23.8 72 3.7 W 9 13 5 7 1010.1 1010.0 0.0
19/10:00pm 29.2 32.8 23.8 72 3.7 WNW 11 15 6 8 1010.0 1009.9 0.0
19/09:30pm 29.2 33.2 23.7 72 3.8 WNW 9 13 5 7 1009.6 1009.5 0.0
19/09:00pm 29.2 32.3 23.6 72 3.9 W 13 19 7 10 1009.0 1008.9 0.0
19/08:30pm 29.2 31.5 23.4 71 4.0 W 17 24 9 13 1008.6 1008.5 0.0
19/08:00pm 29.5 32.1 23.3 69 4.3 W 15 20 8 11 1008.5 1008.4 0.0
19/07:30pm 29.4 31.0 22.8 67 4.5 WSW 19 22 10 12 1008.1 1008.0 0.0
19/07:00pm 29.5 31.1 22.2 65 4.9 WSW 17 20 9 11 1007.6 1007.5 0.0
19/06:30pm 30.0 32.7 22.9 65 4.9 W 13 19 7 10 1007.3 1007.2 0.0
19/06:00pm 30.3 32.7 23.0 65 5.0 WNW 15 20 8 11 1007.0 1006.9 0.0
19/05:30pm 30.2 30.8 19.4 52 7.1 W 15 20 8 11 1006.5 1006.4 0.0
19/05:00pm 31.2 32.4 19.8 50 7.5 WNW 13 17 7 9 1006.5 1006.4 0.0
19/04:30pm 30.6 32.2 21.5 58 6.1 WNW 15 20 8 11 1006.7 1006.6 0.0
19/04:00pm 30.3 30.9 21.0 57 6.2 NW 19 28 10 15 1006.6 1006.5 0.0
19/03:30pm 30.2 30.8 21.3 59 6.0 WNW 20 32 11 17 1006.9 1006.8 0.0
19/03:00pm 30.0 30.7 21.5 60 5.7 WNW 20 28 11 15 1007.2 1007.1 0.0
19/02:30pm 31.0 32.5 21.3 56 6.5 WNW 15 28 8 15 1007.5 1007.4 0.0
19/02:00pm 30.5 32.4 21.3 58 6.2 NNW 13 24 7 13 1008.2 1008.1 0.0
19/01:30pm 30.2 31.4 21.4 59 5.9 NW 17 30 9 16 1008.7 1008.6 0.0
19/01:00pm 30.1 31.4 20.8 57 6.2 WNW 15 22 8 12 1009.4 1009.3 0.0
19/12:30pm 29.5 30.7 21.5 62 5.4 WNW 17 22 9 12 1010.0 1009.9 0.0
19/12:00pm 29.5 31.5 21.6 62 5.3 WNW 13 24 7 13 1010.5 1010.4 0.0
19/11:30am 29.7 31.9 21.8 62 5.3 WNW 13 20 7 11 1010.9 1010.8 0.0
19/11:00am 29.5 31.8 22.0 64 5.1 NW 13 20 7 11 1011.0 1010.9 0.0
19/10:30am 28.9 31.4 22.5 68 4.3 WNW 13 22 7 12 1011.2 1011.1 0.0
19/10:00am 29.2 31.9 22.2 66 4.7 WNW 11 15 6 8 1011.4 1011.3 0.0
19/09:30am 29.2 32.1 22.4 66 4.6 NW 11 17 6 9 1011.5 1011.4 0.0
19/09:00am 29.0 32.1 22.2 66 4.6 WNW 9 15 5 8 1011.6 1011.5 0.0
19/08:30am 29.1 32.8 22.5 67 4.5 NW 7 15 4 8 1011.5 1011.4 0.0
19/08:00am 28.8 32.2 22.7 69 4.1 NNW 9 15 5 8 1011.3 1011.2 0.0
19/07:30am 28.7 32.6 23.0 71 3.9 N 7 13 4 7 1010.8 1010.7 0.0
19/07:00am 28.1 32.3 23.1 74 3.4 N 6 11 3 6 1010.5 1010.4 0.0
19/06:30am 28.0 32.2 23.2 75 3.3 NNE 6 13 3 7 1010.2 1010.1 0.0
19/06:00am 28.1 32.0 22.9 73 3.5 N 7 11 4 6 1009.9 1009.8 0.0
19/05:30am 28.1 32.2 23.0 74 3.5 N 6 9 3 5 1009.3 1009.2 0.0
19/05:00am 28.1 32.5 22.8 73 3.6 N 4 11 2 6 1009.1 1009.0 0.0
19/04:30am 28.2 32.1 22.6 71 3.8 NNE 6 11 3 6 1009.1 1009.0 0.0
19/04:00am 28.3 32.3 22.7 71 3.8 NNE 6 13 3 7 1009.2 1009.1 0.0
19/03:30am 28.3 32.4 23.2 74 3.5 NNW 7 13 4 7 1009.2 1009.1 0.0
19/03:00am 28.4 32.6 23.4 74 3.4 NNW 7 17 4 9 1009.3 1009.2 0.0
19/02:30am 28.4 32.7 23.7 75 3.2 NW 7 15 4 8 1009.6 1009.5 0.0
19/02:00am 28.7 33.4 24.0 76 3.3 WNW 6 15 3 8 1009.5 1009.4 0.0
19/01:30am 28.7 33.2 23.9 75 3.3 NW 7 13 4 7 1009.5 1009.4 0.0
19/01:00am 28.8 32.3 23.5 73 3.6 NW 11 19 6 10 1009.7 1009.6 0.0
19/12:30am 28.9 32.7 23.5 72 3.7 NW 9 17 5 9 1010.0 1009.9 0.0
19/12:00am 29.4 32.7 23.2 69 4.3 WNW 11 17 6 9 1010.2 1010.1 0.0
 
Date/Time
CST
Temp
°C
App
Temp
°C
Dew
Point
°C
Rel
Hum
%
Delta-T
°C
Wind Press
QNH
hPa
Press
MSL
hPa
Rain since
9am
mm
Dir  Spd
km/h
Gust
km/h
Spd
kts
Gust
kts
18/11:30pm 29.5 31.8 23.5 70 4.1 WNW 17 24 9 13 1010.2 1010.1 0.0
18/11:00pm 29.4 31.9 22.5 66 4.7 WNW 13 20 7 11 1010.2 1010.1 0.0
18/10:30pm 29.5 30.8 22.3 65 4.9 WNW 19 22 10 12 1009.9 1009.8 0.0
18/10:00pm 29.4 31.1 21.7 63 5.2 WNW 15 20 8 11 1009.5 1009.4 0.0
18/09:30pm 29.4 31.6 21.9 64 5.1 W 13 19 7 10 1009.1 1009.0 0.0
18/09:00pm 29.2 31.4 21.8 64 5.0 W 13 17 7 9 1008.9 1008.8 0.0
18/08:30pm 29.4 31.2 21.8 63 5.1 W 15 20 8 11 1008.6 1008.5 0.0
18/08:00pm 29.6 31.4 21.8 63 5.3 WSW 15 20 8 11 1008.4 1008.3 0.0
18/07:30pm 29.6 29.6 18.9 52 6.9 WSW 17 24 9 13 1008.3 1008.2 0.0
18/07:00pm 30.4 30.4 18.2 48 7.8 W 15 20 8 11 1008.0 1007.9 0.0
18/06:30pm 31.2 33.0 19.5 49 7.7 NW 9 15 5 8 1007.7 1007.6 0.0
18/06:00pm 31.4 33.1 20.1 51 7.5 NNW 11 19 6 10 1007.2 1007.1 0.0
18/05:30pm 31.9 31.8 17.8 43 9.1 N 15 30 8 16 1006.9 1006.8 0.0
18/05:00pm 31.4 33.0 19.9 50 7.6 N 11 20 6 11 1006.6 1006.5 0.0
18/04:30pm 31.2 33.6 22.2 58 6.1 N 13 24 7 13 1006.6 1006.5 0.0
18/04:00pm 31.9 34.8 21.7 54 6.9 NNW 9 19 5 10 1006.9 1006.8 0.0
18/03:30pm 32.0 34.4 22.3 56 6.6 N 13 24 7 13 1007.1 1007.0 0.0
18/03:00pm 32.1 35.6 22.1 55 6.8 NNW 7 19 4 10 1007.6 1007.5 0.0
18/02:30pm 31.9 34.4 22.4 57 6.5 NW 13 22 7 12 1008.0 1007.9 0.0
18/02:00pm 31.3 33.6 22.0 57 6.3 NW 13 22 7 12 1008.3 1008.2 0.0
18/01:30pm 30.8 32.8 22.2 60 5.8 NNW 15 26 8 14 1008.8 1008.7 0.0
18/01:00pm 30.6 32.5 22.7 62 5.4 WNW 17 22 9 12 1009.3 1009.2 0.0
18/12:30pm 30.2 32.6 22.9 65 5.0 WNW 15 20 8 11 1009.7 1009.6 0.0
18/12:00pm 29.4 31.7 22.8 67 4.5 W 15 19 8 10 1010.2 1010.1 0.0
18/11:30am 29.5 31.9 22.2 65 4.9 W 13 19 7 10 1010.6 1010.5 0.0
18/11:00am 29.5 31.7 20.4 58 6.0 W 9 17 5 9 1010.9 1010.8 0.0
18/10:30am 29.6 32.3 21.3 61 5.6 SSW 9 11 5 6 1011.1 1011.0 0.0
18/10:00am 30.9 34.3 21.6 57 6.3 E 6 9 3 5 1011.3 1011.2 0.0
18/09:30am 30.5 33.9 22.0 60 5.8 NE 7 13 4 7 1011.5 1011.4 0.0
18/09:00am 30.1 33.8 22.6 64 5.1 NE 7 13 4 7 1011.7 1011.6 0.2
18/08:30am 29.7 33.4 22.6 65 4.8 NE 7 15 4 8 1011.7 1011.6 0.2
18/08:00am 29.0 33.0 22.7 69 4.3 ENE 6 13 3 7 1011.4 1011.3 0.2
18/07:30am 28.4 32.9 22.9 72 3.7 NE 4 9 2 5 1011.1 1011.0 0.2
18/07:00am 27.9 32.0 23.0 74 3.3 NE 6 11 3 6 1010.5 1010.4 0.2
18/06:30am 27.8 31.9 23.0 75 3.3 NE 6 13 3 7 1010.1 1010.0 0.2
18/06:00am 27.8 31.6 22.8 74 3.4 NE 7 15 4 8 1009.7 1009.6 0.2
18/05:30am 27.6 31.9 23.3 77 2.9 NE 6 15 3 8 1009.5 1009.4 0.2
18/05:00am 27.6 31.7 23.3 77 2.9 ENE 7 15 4 8 1009.1 1009.0 0.2
18/04:30am 27.8 31.5 23.3 76 3.1 NE 9 17 5 9 1008.9 1008.8 0.2
18/04:00am 27.5 32.2 24.0 81 2.4 NE 6 13 3 7 1008.6 1008.5 0.2
18/03:30am 27.9 32.7 24.2 80 2.6 NE 6 13 3 7 1008.7 1008.6 0.2
18/03:00am 27.9 32.6 24.0 79 2.7 NE 6 13 3 7 1008.6 1008.5 0.2
18/02:30am 28.0 33.0 23.8 78 2.9 NNE 4 9 2 5 1008.7 1008.6 0.2
18/02:00am 28.1 32.7 23.8 77 3.0 N 6 9 3 5 1008.9 1008.8 0.2
18/01:30am 28.3 33.2 23.6 75 3.2 NNW 4 11 2 6 1008.9 1008.8 0.2
18/01:00am 28.3 32.5 23.4 75 3.4 NNW 7 13 4 7 1009.1 1009.0 0.2
18/12:30am 28.5 32.9 23.4 74 3.5 N 6 11 3 6 1009.5 1009.4 0.2
18/12:00am 28.5 32.6 23.2 73 3.6 NNW 7 17 4 9 1009.7 1009.6 0.2
 
Date/Time
CST
Temp
°C
App
Temp
°C
Dew
Point
°C
Rel
Hum
%
Delta-T
°C
Wind Press
QNH
hPa
Press
MSL
hPa
Rain since
9am
mm
Dir  Spd
km/h
Gust
km/h
Spd
kts
Gust
kts
17/11:30pm 28.6 33.1 23.6 74 3.4 NNW 6 13 3 7 1009.7 1009.6 0.2
17/11:00pm 28.6 32.3 23.3 73 3.6 NNW 9 17 5 9 1009.9 1009.8 0.2
17/10:30pm 28.8 31.0 23.2 71 3.8 WNW 17 22 9 12 1009.8 1009.7 0.2
17/10:00pm 29.0 32.7 22.6 68 4.3 NW 7 15 4 8 1009.8 1009.7 0.2
17/09:30pm 29.0 31.6 22.6 68 4.4 WNW 13 19 7 10 1009.5 1009.4 0.2
17/09:00pm 28.8 31.0 22.6 69 4.2 WNW 15 20 8 11 1009.1 1009.0 0.2
17/08:30pm 28.9 31.2 22.7 69 4.2 WNW 15 19 8 10 1009.0 1008.9 0.2
17/08:00pm 28.9 31.5 22.6 69 4.3 WNW 13 22 7 12 1008.6 1008.5 0.2
17/07:30pm 28.9 31.1 22.6 69 4.3 WNW 15 24 8 13 1008.3 1008.2 0.2
17/07:00pm 28.5 30.6 22.4 69 4.1 NW 15 24 8 13 1007.9 1007.8 0.2
17/06:30pm 28.9 31.4 23.8 74 3.5 WNW 17 30 9 16 1007.7 1007.6 0.2
17/06:00pm 29.2 31.5 23.5 71 3.9 WNW 17 26 9 14 1007.3 1007.2 0.2
17/05:30pm 30.4 33.0 21.2 58 6.2 NW 9 15 5 8 1006.8 1006.7 0.2
17/05:00pm 30.2 33.4 21.6 60 5.8 NW 7 20 4 11 1006.7 1006.6 0.2
17/04:30pm 30.3 33.8 22.1 61 5.6 NW 7 17 4 9 1006.5 1006.4 0.2
17/04:00pm 29.9 33.2 22.6 65 5.0 NNW 9 17 5 9 1006.9 1006.8 0.2
17/03:30pm 29.3 31.6 22.7 67 4.5 N 15 24 8 13 1007.0 1006.9 0.2
17/03:00pm 29.4 32.5 22.1 65 4.9 NNE 9 20 5 11 1007.1 1007.0 0.2
17/02:30pm 30.1 32.1 22.9 65 4.9 NNE 17 28 9 15 1007.4 1007.3 0.2
17/02:00pm 29.6 32.6 22.6 66 4.8 NNE 11 26 6 14 1007.9 1007.8 0.2
17/01:30pm 30.0 32.5 23.2 67 4.7 WNW 15 24 8 13 1008.2 1008.1 0.2
17/01:00pm 28.3 30.8 23.2 74 3.5 WNW 15 22 8 12 1008.9 1008.8 0.2
17/12:30pm 29.4 31.9 23.1 69 4.3 WNW 15 20 8 11 1009.4 1009.3 0.0
17/12:00pm 29.1 32.0 22.5 67 4.5 W 11 17 6 9 1010.0 1009.9 0.0
17/11:30am 29.2 31.2 22.2 66 4.7 WNW 15 17 8 9 1010.2 1010.1 0.0
17/11:00am 30.2 33.9 22.5 63 5.2 E 7 13 4 7 1010.3 1010.2 0.0
17/10:30am 28.8 33.2 23.8 74 3.5 SSE 7 13 4 7 1010.4 1010.3 0.0

Other formats

Comma delimited format used in spreadsheet applications
http://www.bom.gov.au/fwo/IDD60801/IDD60801.95122.axf

JavaScript Object Notation format (JSON) in row-major order
http://www.bom.gov.au/fwo/IDD60801/IDD60801.95122.json

Data quality

Most of these data are generated automatically and are frequently updated. Quality checks on data are not normally performed. It is possible for incorrect values to appear. Refer to information at About Latest Weather Observations and please check the disclaimer before using these data.